Time;durP1;ratioP1;P1;durP2;ratioP2;P2;SDS_P1;SDS_P2;PMS_P1;PMS_P2;Temp;Humidity;BMP_temperature;BMP_pressure;BME280_temperature;BME280_humidity;BME280_pressure;Samples;Min_cycle;Max_cycle;Signal;HPM_P1;HPM_P2
2021/09/06 00:01:24;;;;;;;8.50;7.70;;;;;;;16.12;60.59;94868.12;828598;71;31690;-79
2021/09/06 00:16:20;;;;;;;8.30;7.20;;;;;;;15.77;61.97;94884.53;828247;71;31045;-78
2021/09/06 00:31:15;;;;;;;9.73;8.40;;;;;;;15.61;62.53;94892.91;828444;71;28621;-76
2021/09/06 00:46:12;;;;;;;8.45;7.30;;;;;;;15.52;63.40;94901.91;834798;71;28678;-77
2021/09/06 00:47:16;;;;;;;9.45;7.72;;;;;;;15.46;63.55;94894.66;822386;72;25284;-78
2021/09/06 01:01:09;;;;;;;13.43;7.47;;;;;;;15.58;64.20;94906.73;834335;71;28677;-78
2021/09/06 01:16:23;;;;;;;9.80;8.73;;;;;;;15.55;65.41;94920.59;801873;73;29363;-77
2021/09/06 01:31:41;;;;;;;9.25;8.35;;;;;;;15.53;66.20;94905.58;827749;71;31770;-75
2021/09/06 01:46:29;;;;;;;9.88;8.55;;;;;;;15.52;66.92;94914.59;827979;71;32528;-75
2021/09/06 02:01:15;;;;;;;13.60;10.70;;;;;;;15.41;68.73;94920.72;829587;71;28708;-75
2021/09/06 02:16:12;;;;;;;17.52;15.50;;;;;;;15.68;68.61;94912.28;834002;71;29661;-79
2021/09/06 02:31:16;;;;;;;15.70;13.48;;;;;;;15.85;68.06;94920.03;829160;71;31765;-77
2021/09/06 02:46:33;;;;;;;12.73;11.35;;;;;;;15.63;69.29;94927.77;834180;71;31817;-76
2021/09/06 03:16:15;;;;;;;14.78;10.70;;;;;;;15.00;72.58;94932.92;833922;71;32435;-77
2021/09/06 03:31:18;;;;;;;13.78;11.20;;;;;;;14.93;73.16;94939.20;828278;71;28691;-76
2021/09/06 03:46:19;;;;;;;14.93;12.60;;;;;;;14.91;73.71;94958.54;828241;71;30104;-76
2021/09/06 04:01:15;;;;;;;14.83;12.78;;;;;;;14.81;75.16;94976.19;828319;71;29270;-77
2021/09/06 04:16:17;;;;;;;14.90;12.05;;;;;;;14.74;77.02;94977.17;833942;71;31701;-77
2021/09/06 04:31:09;;;;;;;15.10;12.63;;;;;;;15.19;75.93;94995.59;828253;71;28642;-78
2021/09/06 04:32:13;;;;;;;15.25;12.95;;;;;;;15.18;76.13;95001.95;808618;73;25760;-78
2021/09/06 04:46:23;;;;;;;18.32;13.68;;;;;;;15.78;74.31;95006.50;834075;71;30296;-80
2021/09/06 05:01:19;;;;;;;15.53;13.05;;;;;;;16.15;73.02;95017.06;833963;71;28685;-77
2021/09/06 05:16:39;;;;;;;18.07;13.30;;;;;;;17.11;70.07;95030.33;827360;71;32728;-78
2021/09/06 05:31:17;;;;;;;14.80;13.15;;;;;;;17.42;68.55;95045.22;828099;71;30775;-76
2021/09/06 05:46:13;;;;;;;15.78;13.62;;;;;;;17.45;68.74;95037.16;829763;71;30360;-76
2021/09/06 06:01:11;;;;;;;12.95;11.60;;;;;;;17.49;69.19;95049.47;820680;70;30301;-80
2021/09/06 06:16:24;;;;;;;13.48;12.07;;;;;;;17.93;66.63;95025.44;833988;71;30741;-79
2021/09/06 06:46:28;;;;;;;14.00;12.50;;;;;;;19.44;62.53;95056.83;826908;71;33201;-77
2021/09/06 07:16:16;;;;;;;13.43;11.68;;;;;;;20.49;58.71;95070.95;827904;71;31463;-77
2021/09/06 07:31:17;;;;;;;11.85;10.63;;;;;;;20.56;58.26;95100.50;828885;71;32800;-81
2021/09/06 07:46:30;;;;;;;11.63;10.40;;;;;;;20.80;57.17;95102.38;828054;71;33201;-76
2021/09/06 08:01:31;;;;;;;10.88;9.88;;;;;;;20.99;55.86;95119.09;834069;71;33192;-78
2021/09/06 08:16:43;;;;;;;11.03;10.03;;;;;;;22.49;52.59;95105.32;834532;71;32811;-79
2021/09/06 08:31:18;;;;;;;9.90;8.90;;;;;;;23.73;47.00;95094.74;821894;71;30390;-78
2021/09/06 08:46:14;;;;;;;9.73;8.73;;;;;;;23.85;45.53;95110.48;828703;71;29754;-78
2021/09/06 09:16:15;;;;;;;9.50;8.70;;;;;;;22.12;46.21;95104.27;827433;71;33198;-75
2021/09/06 09:31:20;;;;;;;9.90;9.00;;;;;;;22.88;45.20;95109.38;818223;71;32803;-78
2021/09/06 09:46:14;;;;;;;12.60;10.40;;;;;;;22.00;47.05;95089.67;829195;71;32771;-79
2021/09/06 10:01:11;;;;;;;10.40;9.33;;;;;;;22.80;45.59;95102.34;831372;70;29762;-79
2021/09/06 10:16:26;;;;;;;10.20;9.20;;;;;;;23.06;45.99;95095.62;827835;71;31487;-78
2021/09/06 10:31:25;;;;;;;11.00;8.20;;;;;;;20.76;49.92;95113.50;834682;71;32675;-77
2021/09/06 10:46:17;;;;;;;9.08;8.28;;;;;;;21.07;49.62;95100.63;827220;71;32652;-75
2021/09/06 11:01:19;;;;;;;10.10;9.00;;;;;;;22.29;45.43;95087.11;827428;71;32705;-77
2021/09/06 11:16:15;;;;;;;9.80;8.90;;;;;;;22.20;47.48;95096.63;834000;71;30826;-76
2021/09/06 11:31:09;;;;;;;9.67;8.67;;;;;;;22.40;47.02;95093.48;834279;71;29705;-74
2021/09/06 11:46:23;;;;;;;8.80;8.00;;;;;;;21.69;46.78;95093.09;828316;71;29691;-77
2021/09/06 12:01:27;;;;;;;9.85;8.65;;;;;;;21.27;49.71;95096.98;827349;71;32703;-77
2021/09/06 12:16:17;;;;;;;10.08;8.93;;;;;;;20.85;51.71;95091.25;828911;71;30181;-76
2021/09/06 12:31:17;;;;;;;9.98;8.68;;;;;;;20.59;51.57;95096.41;828282;71;30319;-75
2021/09/06 12:46:13;;;;;;;9.40;7.97;;;;;;;20.70;50.35;95081.51;828604;71;29826;-74
2021/09/06 12:47:17;;;;;;;10.30;8.28;;;;;;;20.67;50.49;95086.17;808804;73;26221;-75
2021/09/06 13:01:14;;;;;;;10.28;8.58;;;;;;;20.37;51.43;95097.06;829846;71;31507;-76
2021/09/06 13:16:25;;;;;;;8.85;8.03;;;;;;;20.50;51.68;95087.19;828077;71;30274;-74
2021/09/06 13:31:37;;;;;;;8.85;7.95;;;;;;;21.31;49.92;95069.02;828201;71;30477;-74
2021/09/06 13:46:26;;;;;;;7.83;7.12;;;;;;;20.69;49.58;95082.61;833845;71;33165;-77
2021/09/06 14:01:23;;;;;;;8.80;7.90;;;;;;;21.16;48.34;95087.33;827444;71;33329;-74
2021/09/06 14:16:15;;;;;;;9.23;7.50;;;;;;;21.15;48.18;95084.45;834160;71;29716;-77
2021/09/06 14:31:13;;;;;;;8.65;6.83;;;;;;;20.96;46.49;95097.64;834086;71;29692;-75
2021/09/06 14:46:16;;;;;;;5.95;5.45;;;;;;;20.33;46.60;95090.09;827257;71;32758;-73
2021/09/06 15:16:09;;;;;;;6.70;5.45;;;;;;;20.34;44.42;95100.42;833813;71;30421;-77
2021/09/06 15:31:32;;;;;;;6.15;5.55;;;;;;;20.23;43.62;95107.30;828231;71;30436;-77
2021/09/06 15:46:17;;;;;;;5.80;5.30;;;;;;;20.17;43.34;95113.43;833839;71;32729;-75
2021/09/06 21:16:08;;;;;;;7.80;6.58;;;;;;;18.38;51.44;95238.73;828147;71;29747;-76
2021/09/06 21:31:08;;;;;;;7.20;6.55;;;;;;;18.77;49.67;95238.16;828883;71;30306;-78
2021/09/06 21:46:27;;;;;;;8.80;7.05;;;;;;;19.32;48.19;95251.06;827694;71;33157;-78
2021/09/06 22:01:20;;;;;;;7.30;6.60;;;;;;;18.86;47.48;95248.80;827961;71;30680;-76
2021/09/06 22:02:24;;;;;;;7.03;6.42;;;;;;;18.66;47.84;95252.37;808421;72;26715;-79
2021/09/06 22:16:23;;;;;;;6.58;5.95;;;;;;;17.32;51.75;95237.33;833662;71;33222;-76
2021/09/06 22:31:36;;;;;;;6.78;6.08;;;;;;;16.64;52.61;95248.79;827409;71;32793;-77
2021/09/06 22:46:19;;;;;;;8.08;5.80;;;;;;;15.47;57.54;95232.13;827149;71;32657;-77
2021/09/06 23:01:11;;;;;;;6.95;6.20;;;;;;;15.06;61.59;95252.83;828050;71;30785;-78
2021/09/06 23:16:24;;;;;;;7.12;6.42;;;;;;;14.91;65.39;95244.69;827969;71;30331;-78
2021/09/06 23:31:22;;;;;;;10.90;7.40;;;;;;;14.80;66.99;95245.97;833843;71;30340;-76
2021/09/06 23:46:18;;;;;;;8.25;7.45;;;;;;;14.48;69.32;95246.86;833843;71;29747;-74
